Time;durP1;ratioP1;P1;durP2;ratioP2;P2;SDS_P1;SDS_P2;PMS_P1;PMS_P2;Temp;Humidity;BMP_temperature;BMP_pressure;BME280_temperature;BME280_humidity;BME280_pressure;Samples;Min_cycle;Max_cycle;Signal;HPM_P1;HPM_P2
2023/08/23 00:01:42;;;;;;;6.72;6.03;;;18.90;99.90;;;;;;5024394;28;20036;-91
2023/08/23 00:04:07;;;;;;;8.20;6.28;;;18.80;99.90;;;;;;5039745;28;20033;-89
2023/08/23 00:06:33;;;;;;;9.30;7.32;;;18.80;99.90;;;;;;5036063;28;20044;-89
2023/08/23 00:08:59;;;;;;;9.32;6.90;;;18.90;99.90;;;;;;5049279;28;20041;-90
2023/08/23 00:11:25;;;;;;;12.57;7.32;;;18.80;99.90;;;;;;5031260;28;20091;-90
2023/08/23 00:13:51;;;;;;;7.88;5.88;;;19.10;99.90;;;;;;5005312;28;20041;-89
2023/08/23 00:16:18;;;;;;;9.05;7.50;;;18.90;99.90;;;;;;5016985;28;20119;-89
2023/08/23 00:18:44;;;;;;;10.18;7.13;;;18.80;99.90;;;;;;5032159;28;20033;-88
2023/08/23 00:21:11;;;;;;;11.60;8.05;;;18.70;99.90;;;;;;5046826;28;20102;-89
2023/08/23 00:23:37;;;;;;;10.70;7.93;;;18.70;99.90;;;;;;5037053;28;20508;-89
2023/08/23 00:26:03;;;;;;;15.70;9.27;;;18.80;99.90;;;;;;5039486;28;20044;-89
2023/08/23 00:28:29;;;;;;;10.65;8.18;;;18.60;99.90;;;;;;5040963;28;20050;-91
2023/08/23 00:30:55;;;;;;;13.40;9.75;;;18.70;99.90;;;;;;5034177;28;20040;-90
2023/08/23 00:33:21;;;;;;;10.27;8.65;;;18.90;99.90;;;;;;5033776;28;20915;-89
2023/08/23 00:35:49;;;;;;;14.60;11.07;;;18.70;99.90;;;;;;5023674;28;20033;-89
2023/08/23 00:38:14;;;;;;;14.95;10.43;;;18.80;99.90;;;;;;5011001;28;20028;-89
2023/08/23 00:40:40;;;;;;;14.30;10.68;;;18.70;99.90;;;;;;5013888;28;20078;-90
2023/08/23 00:43:07;;;;;;;11.18;9.10;;;18.70;99.90;;;;;;5016673;28;20037;-89
2023/08/23 00:45:37;;;;;;;11.63;9.07;;;18.70;99.90;;;;;;5002764;28;20086;-89
2023/08/23 00:48:04;;;;;;;10.32;9.10;;;18.70;99.90;;;;;;5018846;28;20041;-89
2023/08/23 00:50:32;;;;;;;9.35;8.35;;;18.70;99.90;;;;;;5025645;28;20045;-90
2023/08/23 00:52:58;;;;;;;9.30;7.90;;;18.60;99.90;;;;;;5020513;28;20041;-89
2023/08/23 00:55:24;;;;;;;9.88;7.80;;;18.70;99.90;;;;;;5018976;28;20043;-91
2023/08/23 00:57:52;;;;;;;9.90;7.88;;;18.60;99.90;;;;;;4998470;28;20068;-91
2023/08/23 01:00:18;;;;;;;12.10;8.40;;;18.60;99.90;;;;;;5030258;28;20028;-90
2023/08/23 01:02:44;;;;;;;13.02;8.27;;;18.60;99.90;;;;;;5054665;28;20097;-89
2023/08/23 01:05:11;;;;;;;11.77;8.10;;;18.60;99.90;;;;;;5023269;28;20036;-88
2023/08/23 01:07:52;;;;;;;11.52;8.10;;;18.50;99.90;;;;;;5056723;28;20496;-89
2023/08/23 01:10:32;;;;;;;9.43;8.35;;;18.50;99.90;;;;;;5041326;28;20541;-89
2023/08/23 01:13:22;;;;;;;8.10;7.30;;;18.40;99.90;;;;;;5037904;28;20127;-91
2023/08/23 01:15:49;;;;;;;10.75;7.45;;;18.50;99.90;;;;;;5034292;28;20033;-88
2023/08/23 01:18:16;;;;;;;10.00;7.15;;;18.40;99.90;;;;;;5003023;28;20029;-89
2023/08/23 01:20:48;;;;;;;10.45;8.18;;;18.30;99.90;;;;;;5023125;28;20397;-89
2023/08/23 01:23:14;;;;;;;9.18;7.70;;;18.30;99.90;;;;;;5046638;28;20053;-89
2023/08/23 01:25:50;;;;;;;9.60;7.20;;;18.40;99.90;;;;;;5055558;28;20044;-90
2023/08/23 01:28:17;;;;;;;8.13;7.13;;;18.30;99.90;;;;;;5055058;28;20119;-90
2023/08/23 01:30:43;;;;;;;9.43;7.95;;;18.30;99.90;;;;;;5037551;28;20041;-90
2023/08/23 01:33:31;;;;;;;8.68;7.78;;;18.30;99.90;;;;;;5035932;28;20037;-89
2023/08/23 01:36:23;;;;;;;9.55;7.80;;;18.20;99.90;;;;;;5050534;28;20451;-88
2023/08/23 01:38:50;;;;;;;9.02;7.60;;;18.30;99.90;;;;;;5049239;28;20056;-89
2023/08/23 01:41:17;;;;;;;9.40;7.68;;;18.30;99.90;;;;;;5051971;28;20397;-89
2023/08/23 01:43:45;;;;;;;8.77;7.72;;;18.20;99.90;;;;;;5036127;28;20044;-89
2023/08/23 01:46:11;;;;;;;9.32;7.53;;;18.10;99.90;;;;;;5034978;28;20040;-91
2023/08/23 01:48:37;;;;;;;10.55;8.02;;;18.10;99.90;;;;;;5037547;28;20106;-89
2023/08/23 01:51:03;;;;;;;11.32;8.65;;;18.20;99.90;;;;;;5042884;28;20115;-89
2023/08/23 01:53:29;;;;;;;10.68;8.23;;;18.20;99.90;;;;;;5028304;28;20041;-90
2023/08/23 01:55:54;;;;;;;10.38;8.40;;;18.10;99.90;;;;;;5037642;28;20139;-90
2023/08/23 01:58:20;;;;;;;8.80;7.38;;;18.00;99.90;;;;;;5040073;28;20033;-89
2023/08/23 02:00:51;;;;;;;13.48;9.40;;;18.10;99.90;;;;;;5027380;28;20431;-88
2023/08/23 02:03:18;;;;;;;12.95;9.88;;;18.40;99.90;;;;;;5020188;28;20044;-90
2023/08/23 02:05:45;;;;;;;15.88;9.48;;;17.20;99.90;;;;;;5034545;28;20076;-89
2023/08/23 02:08:15;;;;;;;11.80;8.48;;;18.40;99.90;;;;;;5046283;28;20091;-88
2023/08/23 02:10:47;;;;;;;12.05;9.00;;;18.50;99.90;;;;;;5044591;28;20127;-88
2023/08/23 02:13:13;;;;;;;11.57;8.13;;;16.50;99.90;;;;;;5044114;28;20119;-90
2023/08/23 02:15:40;;;;;;;11.32;7.90;;;18.60;99.90;;;;;;5048796;28;20048;-89
2023/08/23 02:18:09;;;;;;;11.38;8.10;;;18.40;99.90;;;;;;5037491;28;20035;-88
2023/08/23 02:20:35;;;;;;;10.73;8.40;;;17.00;99.90;;;;;;5007755;28;20060;-89
2023/08/23 02:23:01;;;;;;;13.45;9.00;;;18.50;99.90;;;;;;5025983;28;20056;-88
2023/08/23 02:25:26;;;;;;;12.00;9.20;;;18.50;99.90;;;;;;5002036;28;20055;-89
2023/08/23 02:27:52;;;;;;;12.43;8.85;;;18.40;99.90;;;;;;5010754;28;20045;-89
2023/08/23 02:30:18;;;;;;;10.52;8.52;;;18.30;99.90;;;;;;5010405;28;20051;-88
2023/08/23 02:32:43;;;;;;;14.02;9.18;;;18.40;99.90;;;;;;5004705;28;20037;-88
2023/08/23 02:35:09;;;;;;;10.95;9.50;;;18.30;99.90;;;;;;5014355;28;20037;-89
2023/08/23 02:37:35;;;;;;;15.38;10.57;;;18.40;99.90;;;;;;5010796;28;20029;-88
2023/08/23 02:40:01;;;;;;;13.75;9.75;;;18.30;99.90;;;;;;5039357;28;20064;-88
2023/08/23 02:42:27;;;;;;;11.38;9.65;;;18.20;99.90;;;;;;5037322;28;20439;-88
2023/08/23 02:44:52;;;;;;;10.85;8.40;;;18.30;99.90;;;;;;5021371;28;20089;-88
2023/08/23 02:47:18;;;;;;;10.00;8.27;;;18.30;99.90;;;;;;5003510;28;20120;-88
2023/08/23 02:49:44;;;;;;;12.07;8.75;;;18.30;99.90;;;;;;5005578;28;20044;-88
2023/08/23 02:52:10;;;;;;;12.02;8.77;;;18.30;99.90;;;;;;5005712;28;20044;-89
2023/08/23 02:54:36;;;;;;;11.15;8.80;;;18.30;99.90;;;;;;5007166;28;20069;-87
2023/08/23 02:57:01;;;;;;;11.13;8.95;;;18.20;99.90;;;;;;5017043;28;20036;-88
2023/08/23 02:59:27;;;;;;;15.07;9.90;;;18.40;99.90;;;;;;5008815;28;20086;-88
2023/08/23 03:01:59;;;;;;;11.90;9.52;;;18.20;99.90;;;;;;5019230;28;20630;-90
2023/08/23 03:04:24;;;;;;;14.70;10.80;;;18.40;99.90;;;;;;5024829;28;20393;-88
2023/08/23 03:06:50;;;;;;;13.57;10.18;;;18.10;99.90;;;;;;5031468;28;20041;-87
2023/08/23 03:09:16;;;;;;;15.65;11.95;;;18.30;99.90;;;;;;5008148;28;20041;-88
2023/08/23 03:11:42;;;;;;;17.70;13.02;;;18.30;99.90;;;;;;5024061;28;20043;-89
2023/08/23 03:14:08;;;;;;;23.60;14.60;;;18.30;99.90;;;;;;5040023;28;20036;-89
2023/08/23 03:16:34;;;;;;;25.30;15.18;;;18.30;99.90;;;;;;5040499;28;21735;-88
2023/08/23 03:18:59;;;;;;;19.52;14.20;;;18.20;99.90;;;;;;5022117;28;20146;-89
2023/08/23 03:21:25;;;;;;;15.38;11.82;;;18.30;99.90;;;;;;5023629;28;20132;-87
2023/08/23 03:23:51;;;;;;;18.63;11.98;;;18.10;99.90;;;;;;4998856;28;20040;-89
2023/08/23 03:26:16;;;;;;;16.65;11.70;;;18.20;99.90;;;;;;5004400;28;20041;-89
2023/08/23 03:28:42;;;;;;;19.60;12.20;;;18.20;99.90;;;;;;4995955;28;20055;-88
2023/08/23 03:31:08;;;;;;;14.70;11.35;;;18.20;99.90;;;;;;5056377;28;20071;-87
2023/08/23 03:33:33;;;;;;;21.77;11.57;;;18.40;99.90;;;;;;5039514;28;20116;-87
2023/08/23 03:35:59;;;;;;;18.88;12.05;;;18.40;99.90;;;;;;5011758;28;20044;-88
2023/08/23 03:38:25;;;;;;;16.15;11.00;;;18.20;99.90;;;;;;5009195;28;20048;-88
2023/08/23 03:40:57;;;;;;;18.10;12.35;;;16.90;99.90;;;;;;5008587;28;20379;-89
2023/08/23 03:43:22;;;;;;;19.05;13.10;;;18.20;99.90;;;;;;5024614;28;20044;-89
2023/08/23 03:45:49;;;;;;;20.30;13.27;;;18.20;99.90;;;;;;4990655;28;20037;-87
2023/08/23 03:48:16;;;;;;;14.95;11.57;;;18.40;99.90;;;;;;5038076;28;20041;-88
2023/08/23 03:50:42;;;;;;;13.85;11.13;;;18.20;99.90;;;;;;5034782;28;20055;-89
2023/08/23 03:53:07;;;;;;;21.33;13.25;;;18.50;99.90;;;;;;5003947;28;20489;-88
2023/08/23 03:55:35;;;;;;;16.25;11.15;;;18.50;99.90;;;;;;5009332;28;20792;-86
2023/08/23 03:58:01;;;;;;;14.27;11.55;;;18.30;99.90;;;;;;5012056;28;20076;-89
2023/08/23 04:00:27;;;;;;;16.95;11.50;;;18.40;99.90;;;;;;5019818;28;20072;-89
2023/08/23 04:02:52;;;;;;;13.57;10.20;;;18.10;99.90;;;;;;5020421;28;20124;-87
2023/08/23 04:05:18;;;;;;;12.98;10.63;;;18.10;99.90;;;;;;5004267;28;20037;-87
2023/08/23 04:07:44;;;;;;;16.33;10.85;;;18.20;99.90;;;;;;5029198;28;20044;-89
2023/08/23 04:10:11;;;;;;;14.02;10.23;;;18.20;99.90;;;;;;5056571;28;20032;-88
2023/08/23 04:12:36;;;;;;;12.80;9.15;;;18.40;99.90;;;;;;5023434;28;20052;-89
2023/08/23 04:15:03;;;;;;;16.48;9.32;;;18.10;99.90;;;;;;5024634;28;20099;-89
2023/08/23 04:17:28;;;;;;;16.10;8.68;;;18.30;99.90;;;;;;5050751;28;20037;-87
2023/08/23 04:19:54;;;;;;;10.63;8.45;;;18.10;99.90;;;;;;5039603;28;20036;-87
2023/08/23 04:22:20;;;;;;;14.27;9.77;;;18.30;99.90;;;;;;5034039;28;20099;-87
2023/08/23 04:24:45;;;;;;;10.77;8.65;;;18.20;99.90;;;;;;5031146;28;20040;-89
2023/08/23 04:27:11;;;;;;;11.80;7.85;;;18.00;99.90;;;;;;5014418;28;20036;-88
2023/08/23 04:29:37;;;;;;;20.08;11.05;;;18.10;99.90;;;;;;5036588;28;20040;-87
2023/08/23 04:32:09;;;;;;;12.10;8.55;;;18.10;99.90;;;;;;5035387;28;20094;-88
2023/08/23 04:34:34;;;;;;;13.25;10.30;;;18.00;99.90;;;;;;5024170;28;20690;-89
2023/08/23 04:37:00;;;;;;;14.02;9.52;;;17.90;99.90;;;;;;5023184;28;20040;-88
2023/08/23 04:39:26;;;;;;;15.95;10.25;;;18.30;99.90;;;;;;5006060;28;20496;-88
2023/08/23 04:41:51;;;;;;;10.75;8.48;;;18.10;99.90;;;;;;5025655;28;20036;-89
2023/08/23 04:44:17;;;;;;;12.73;9.15;;;18.20;99.90;;;;;;5041296;28;21857;-87
2023/08/23 04:46:44;;;;;;;13.45;9.77;;;18.10;99.90;;;;;;5039748;28;20044;-88
2023/08/23 04:49:10;;;;;;;9.50;7.60;;;18.10;99.90;;;;;;5023212;28;20033;-89
2023/08/23 04:51:36;;;;;;;13.82;9.60;;;18.20;99.90;;;;;;5048351;28;20032;-89
2023/08/23 04:54:03;;;;;;;14.80;10.55;;;18.10;99.90;;;;;;5054544;28;20123;-88
2023/08/23 04:56:29;;;;;;;12.00;9.98;;;18.30;99.90;;;;;;5039019;28;20028;-87
2023/08/23 04:58:55;;;;;;;13.82;9.77;;;18.30;99.90;;;;;;5038729;28;20534;-89
2023/08/23 05:01:21;;;;;;;18.27;11.75;;;18.40;99.90;;;;;;5025000;28;20118;-88
2023/08/23 05:03:46;;;;;;;21.52;12.57;;;18.20;99.90;;;;;;5038395;28;20815;-90
2023/08/23 05:06:12;;;;;;;17.17;12.07;;;18.10;99.90;;;;;;5005873;28;20405;-88
2023/08/23 05:08:38;;;;;;;21.67;13.63;;;18.30;99.90;;;;;;5054897;28;20256;-87
2023/08/23 05:11:03;;;;;;;22.85;14.63;;;18.30;99.90;;;;;;5005789;28;20090;-87
2023/08/23 05:13:29;;;;;;;22.35;14.80;;;18.30;99.90;;;;;;5051822;28;20448;-90
2023/08/23 05:15:56;;;;;;;19.15;12.85;;;18.40;99.90;;;;;;5037119;28;20032;-86
2023/08/23 05:18:22;;;;;;;15.77;12.30;;;18.40;99.90;;;;;;5039659;28;20067;-87
2023/08/23 05:20:55;;;;;;;18.00;13.32;;;18.40;99.90;;;;;;5040024;28;20714;-89
2023/08/23 05:23:26;;;;;;;23.98;13.55;;;18.60;99.90;;;;;;5060079;28;20747;-87
2023/08/23 05:25:53;;;;;;;20.58;14.52;;;18.40;99.90;;;;;;5057892;28;20043;-90
2023/08/23 05:28:20;;;;;;;20.10;13.90;;;18.60;99.90;;;;;;5026485;28;20036;-87
2023/08/23 05:30:46;;;;;;;20.30;13.90;;;18.40;99.90;;;;;;5031283;28;20040;-87
2023/08/23 05:33:12;;;;;;;19.65;14.15;;;18.60;99.90;;;;;;5047693;28;20068;-91
2023/08/23 05:35:43;;;;;;;19.58;14.40;;;18.70;99.90;;;;;;5038912;28;20073;-90
2023/08/23 05:38:09;;;;;;;21.63;15.68;;;18.50;99.90;;;;;;5044819;28;20032;-88
2023/08/23 05:40:36;;;;;;;17.55;13.05;;;18.60;99.90;;;;;;5047541;28;20169;-90
2023/08/23 05:43:01;;;;;;;19.63;14.48;;;18.70;99.90;;;;;;5025191;28;20185;-90
2023/08/23 05:45:27;;;;;;;18.25;14.27;;;18.80;99.90;;;;;;5018691;28;20123;-88
2023/08/23 05:47:57;;;;;;;16.30;12.40;;;18.50;99.90;;;;;;5038462;28;20047;-89
2023/08/23 05:50:23;;;;;;;17.67;13.93;;;18.00;99.90;;;;;;5040252;28;20158;-87
2023/08/23 05:52:49;;;;;;;18.50;13.75;;;18.50;99.90;;;;;;5057785;28;20154;-88
2023/08/23 05:55:14;;;;;;;14.38;11.73;;;18.50;99.90;;;;;;5047692;28;20055;-89
2023/08/23 05:57:40;;;;;;;15.38;11.30;;;18.70;99.90;;;;;;5067205;28;20077;-90
2023/08/23 06:00:11;;;;;;;17.83;14.13;;;18.60;99.90;;;;;;5037412;28;20059;-88
2023/08/23 06:02:37;;;;;;;14.55;10.95;;;18.80;99.90;;;;;;5027604;28;20400;-89
2023/08/23 06:05:05;;;;;;;20.90;13.93;;;19.10;99.90;;;;;;5052785;28;20036;-88
2023/08/23 06:07:31;;;;;;;22.75;14.95;;;18.90;99.90;;;;;;5038941;28;20072;-88
2023/08/23 06:09:57;;;;;;;14.88;11.90;;;18.90;99.90;;;;;;5029429;28;20491;-89
2023/08/23 06:12:27;;;;;;;16.70;12.93;;;19.20;99.90;;;;;;5035240;28;20112;-89
2023/08/23 06:14:53;;;;;;;17.38;12.48;;;19.00;99.90;;;;;;5052632;28;20034;-87
2023/08/23 06:17:19;;;;;;;19.85;13.80;;;19.30;99.90;;;;;;5063598;28;20445;-89
2023/08/23 06:19:45;;;;;;;18.20;13.05;;;19.50;99.90;;;;;;5055670;28;20119;-87
2023/08/23 06:22:14;;;;;;;20.98;12.98;;;19.50;99.90;;;;;;5037308;28;20048;-87
2023/08/23 06:24:40;;;;;;;22.45;14.23;;;17.20;99.90;;;;;;5002917;28;20123;-88
2023/08/23 06:27:06;;;;;;;18.10;13.50;;;19.70;99.90;;;;;;5034479;28;20078;-87
2023/08/23 06:29:32;;;;;;;19.40;13.32;;;19.50;99.90;;;;;;5020994;28;20048;-88
2023/08/23 06:31:59;;;;;;;18.73;13.77;;;19.60;99.90;;;;;;5016769;28;20121;-89
2023/08/23 06:34:25;;;;;;;17.38;11.32;;;19.80;99.90;;;;;;5008869;28;20106;-87
2023/08/23 06:36:51;;;;;;;14.45;11.10;;;19.90;99.90;;;;;;5034375;28;20024;-88
2023/08/23 06:39:17;;;;;;;19.20;13.20;;;19.80;99.90;;;;;;5053292;28;20443;-87
2023/08/23 06:41:43;;;;;;;18.80;12.90;;;19.90;99.90;;;;;;5023154;28;20055;-88
2023/08/23 06:44:09;;;;;;;21.85;13.50;;;20.00;99.90;;;;;;5038079;28;20476;-88
2023/08/23 06:46:34;;;;;;;19.25;13.98;;;20.00;99.90;;;;;;5025798;28;20040;-89
2023/08/23 06:49:00;;;;;;;19.73;12.98;;;19.90;99.90;;;;;;5015891;28;20043;-88
2023/08/23 06:51:29;;;;;;;17.05;13.00;;;20.10;99.90;;;;;;5003414;28;20102;-88
2023/08/23 06:53:55;;;;;;;14.90;12.27;;;19.80;99.90;;;;;;5018755;28;20048;-88
2023/08/23 06:56:20;;;;;;;14.93;12.00;;;19.80;99.90;;;;;;5019149;28;20041;-87
2023/08/23 06:58:46;;;;;;;16.42;12.93;;;19.90;99.90;;;;;;5022143;28;20043;-88
2023/08/23 07:01:16;;;;;;;17.60;14.05;;;20.20;99.90;;;;;;5022808;28;20039;-88
2023/08/23 07:03:42;;;;;;;20.30;15.75;;;20.20;99.90;;;;;;5035694;28;20128;-88
2023/08/23 07:06:13;;;;;;;17.98;14.38;;;20.50;99.90;;;;;;5035039;28;20056;-89
2023/08/23 07:08:45;;;;;;;17.35;14.73;;;20.40;99.90;;;;;;5037346;28;20046;-89
2023/08/23 07:11:10;;;;;;;18.77;14.10;;;20.20;99.90;;;;;;5040642;28;20045;-89
2023/08/23 07:13:39;;;;;;;19.33;15.40;;;20.60;99.90;;;;;;4991509;28;20041;-87
2023/08/23 07:16:08;;;;;;;15.88;12.77;;;20.40;99.90;;;;;;5024347;28;20060;-89
2023/08/23 07:18:34;;;;;;;19.30;13.95;;;20.70;99.90;;;;;;5040094;28;20040;-88
2023/08/23 07:20:59;;;;;;;16.85;13.63;;;20.60;99.90;;;;;;4989591;28;20554;-89
2023/08/23 07:23:25;;;;;;;18.02;13.43;;;20.70;99.90;;;;;;5040047;28;20058;-88
2023/08/23 07:25:51;;;;;;;16.85;14.05;;;20.50;99.90;;;;;;5030458;28;20053;-88
2023/08/23 07:28:17;;;;;;;16.88;14.35;;;20.50;99.90;;;;;;5020749;28;20045;-88
2023/08/23 07:30:47;;;;;;;19.95;14.25;;;20.60;99.90;;;;;;5053510;28;20040;-88
2023/08/23 07:33:13;;;;;;;15.90;12.93;;;20.90;99.90;;;;;;5056804;28;20055;-88
2023/08/23 07:35:38;;;;;;;16.48;13.05;;;20.80;99.90;;;;;;5048211;28;20478;-87
2023/08/23 07:38:05;;;;;;;16.75;12.65;;;21.10;99.90;;;;;;5039401;28;20067;-88
2023/08/23 07:40:31;;;;;;;17.02;13.13;;;21.20;99.90;;;;;;5033865;28;20463;-88
2023/08/23 07:42:57;;;;;;;18.63;13.10;;;21.00;99.90;;;;;;5022049;28;20068;-88
2023/08/23 07:45:22;;;;;;;15.63;12.07;;;21.10;99.90;;;;;;5072827;28;20462;-88
2023/08/23 07:47:48;;;;;;;16.85;13.00;;;21.30;99.90;;;;;;5036931;28;20045;-88
2023/08/23 07:50:14;;;;;;;13.57;11.90;;;21.30;99.90;;;;;;5018461;28;20129;-88
2023/08/23 07:52:39;;;;;;;15.95;12.00;;;21.40;99.90;;;;;;5027355;28;20060;-88
2023/08/23 07:55:08;;;;;;;13.27;11.32;;;21.50;99.90;;;;;;5036508;28;20508;-87
2023/08/23 07:57:34;;;;;;;12.20;10.90;;;21.60;99.90;;;;;;5053199;28;20119;-90
2023/08/23 07:59:59;;;;;;;16.42;10.82;;;22.00;99.90;;;;;;5054054;28;20130;-89
2023/08/23 08:02:25;;;;;;;12.52;11.00;;;22.00;99.90;;;;;;5039524;28;20047;-89
2023/08/23 08:04:51;;;;;;;12.85;10.05;;;22.10;99.90;;;;;;5032390;28;20183;-89
2023/08/23 08:07:18;;;;;;;10.23;8.90;;;21.10;99.90;;;;;;5048656;28;20512;-89
2023/08/23 08:09:45;;;;;;;12.65;9.77;;;22.20;99.90;;;;;;5023830;28;20044;-89
2023/08/23 08:12:10;;;;;;;9.35;8.07;;;22.20;99.90;;;;;;5056499;28;20044;-89
2023/08/23 08:14:37;;;;;;;9.18;8.25;;;22.40;99.90;;;;;;5056599;28;20396;-88
2023/08/23 08:17:03;;;;;;;11.65;7.50;;;21.30;99.90;;;;;;5036406;28;20582;-88
2023/08/23 08:19:29;;;;;;;9.20;6.85;;;22.50;99.90;;;;;;5021595;28;20069;-88
2023/08/23 08:21:55;;;;;;;10.10;6.32;;;22.50;99.90;;;;;;5033931;28;20033;-89
2023/08/23 08:24:21;;;;;;;7.95;6.05;;;22.50;99.90;;;;;;5017980;28;20045;-89
2023/08/23 08:26:49;;;;;;;6.95;5.75;;;22.50;99.90;;;;;;4998087;28;20043;-90
2023/08/23 08:29:16;;;;;;;10.38;5.18;;;22.60;99.90;;;;;;5023027;28;20118;-90
2023/08/23 08:31:43;;;;;;;6.35;5.40;;;22.80;99.90;;;;;;5043629;28;20041;-89
2023/08/23 08:34:09;;;;;;;7.35;5.18;;;22.80;99.90;;;;;;5033188;28;20039;-90
2023/08/23 08:36:35;;;;;;;6.30;5.03;;;22.90;99.90;;;;;;4987602;28;20041;-89
2023/08/23 08:39:01;;;;;;;7.78;4.18;;;23.10;99.90;;;;;;5004142;28;20459;-89
2023/08/23 08:41:27;;;;;;;5.28;3.63;;;23.00;99.90;;;;;;5025311;28;20131;-89
2023/08/23 08:43:53;;;;;;;6.22;4.80;;;23.20;99.90;;;;;;4986549;28;20401;-89
2023/08/23 08:46:20;;;;;;;6.35;5.13;;;23.30;99.90;;;;;;5024863;28;20032;-88
2023/08/23 08:48:46;;;;;;;11.63;5.90;;;23.40;99.90;;;;;;5006086;28;20051;-89
2023/08/23 08:51:19;;;;;;;8.13;5.05;;;23.40;99.90;;;;;;5006029;28;20127;-89
2023/08/23 08:53:49;;;;;;;10.05;5.40;;;23.60;99.90;;;;;;5022834;28;20045;-90
2023/08/23 08:56:17;;;;;;;7.50;5.85;;;23.60;99.90;;;;;;5005953;28;20029;-89
2023/08/23 08:58:45;;;;;;;7.03;5.80;;;23.80;99.90;;;;;;5038624;28;20362;-90
2023/08/23 09:01:13;;;;;;;9.13;6.55;;;24.00;99.90;;;;;;4997820;28;20176;-89
2023/08/23 09:03:40;;;;;;;5.90;5.30;;;24.10;99.90;;;;;;5009556;28;20037;-88
2023/08/23 09:06:09;;;;;;;11.73;6.00;;;22.80;99.90;;;;;;5012312;28;20044;-87
2023/08/23 09:08:35;;;;;;;7.88;5.80;;;24.30;99.90;;;;;;5009799;28;20036;-89
2023/08/23 09:11:01;;;;;;;6.13;5.00;;;26.20;99.90;;;;;;5025800;28;20813;-87
2023/08/23 09:13:27;;;;;;;7.57;5.95;;;24.70;99.90;;;;;;5007959;28;20037;-90
2023/08/23 09:15:53;;;;;;;7.50;5.80;;;24.70;99.90;;;;;;5023187;28;20039;-89
2023/08/23 09:18:19;;;;;;;7.78;6.00;;;24.80;99.90;;;;;;5010782;28;20025;-88
2023/08/23 09:20:45;;;;;;;6.60;5.40;;;24.90;99.90;;;;;;5016180;28;20040;-91
2023/08/23 09:23:11;;;;;;;9.68;6.38;;;25.00;99.90;;;;;;5030452;28;20497;-88
2023/08/23 09:25:36;;;;;;;7.85;5.35;;;25.30;99.90;;;;;;5018342;28;20040;-89
2023/08/23 09:28:03;;;;;;;6.85;5.65;;;25.40;99.90;;;;;;5006482;28;20037;-89
2023/08/23 09:30:29;;;;;;;7.70;6.13;;;25.50;99.90;;;;;;5010855;28;20067;-89
2023/08/23 09:32:57;;;;;;;7.25;6.35;;;25.60;99.90;;;;;;4998918;28;20041;-88
2023/08/23 09:35:24;;;;;;;7.30;5.82;;;25.90;99.90;;;;;;5042536;28;20118;-88
2023/08/23 09:37:50;;;;;;;8.43;6.63;;;26.00;99.90;;;;;;5010374;28;20150;-89
2023/08/23 09:40:23;;;;;;;8.20;6.43;;;25.80;99.90;;;;;;4999277;28;20064;-88
2023/08/23 09:42:50;;;;;;;8.03;5.23;;;25.60;99.90;;;;;;5010199;28;20041;-91
2023/08/23 09:45:21;;;;;;;9.88;6.00;;;26.10;99.90;;;;;;5031579;28;20040;-90
2023/08/23 09:47:55;;;;;;;6.45;5.40;;;25.80;99.90;;;;;;5033747;28;20569;-90
2023/08/23 09:50:23;;;;;;;8.13;5.40;;;24.60;99.90;;;;;;5005707;28;20041;-90
2023/08/23 09:53:21;;;;;;;6.43;5.68;;;26.40;99.90;;;;;;5001217;28;20036;-90
2023/08/23 09:55:47;;;;;;;6.13;4.72;;;26.30;99.90;;;;;;5026523;28;20033;-90
2023/08/23 09:58:13;;;;;;;8.48;5.47;;;26.50;99.90;;;;;;5016545;28;20133;-91
2023/08/23 10:00:39;;;;;;;10.60;6.20;;;26.30;99.90;;;;;;5029120;28;20071;-90
2023/08/23 10:03:07;;;;;;;7.78;5.50;;;26.00;99.90;;;;;;5036135;28;20036;-89
2023/08/23 10:05:35;;;;;;;6.82;5.70;;;25.90;99.90;;;;;;5017711;28;20072;-88
2023/08/23 10:08:02;;;;;;;8.68;6.60;;;24.20;99.90;;;;;;5025519;28;20511;-88
2023/08/23 10:10:30;;;;;;;6.82;5.97;;;26.00;99.90;;;;;;5020317;28;20033;-89
2023/08/23 10:13:04;;;;;;;8.48;6.45;;;26.50;99.90;;;;;;5036825;28;20052;-88
2023/08/23 10:15:37;;;;;;;9.50;6.35;;;26.50;99.90;;;;;;5028007;28;20118;-90
2023/08/23 10:18:06;;;;;;;6.95;6.35;;;26.20;99.90;;;;;;5032796;28;20072;-89
2023/08/23 10:20:38;;;;;;;10.02;6.40;;;26.10;99.90;;;;;;5036766;28;20123;-88
2023/08/23 10:23:15;;;;;;;8.65;6.65;;;26.10;99.90;;;;;;5030393;28;20056;-88
2023/08/23 10:25:45;;;;;;;8.20;6.07;;;26.60;99.90;;;;;;5020938;28;20123;-89
2023/08/23 10:28:18;;;;;;;9.05;7.18;;;26.80;99.90;;;;;;5034678;28;20055;-89
2023/08/23 10:30:46;;;;;;;8.52;6.78;;;26.60;99.90;;;;;;5017269;28;20779;-90
2023/08/23 10:33:14;;;;;;;7.22;6.28;;;26.10;99.90;;;;;;5039986;28;20117;-88
2023/08/23 10:35:42;;;;;;;8.60;6.55;;;26.10;99.90;;;;;;5020299;28;20050;-90
2023/08/23 10:38:09;;;;;;;9.75;6.90;;;25.90;99.90;;;;;;5031023;28;20025;-90
2023/08/23 10:40:37;;;;;;;7.72;6.50;;;26.20;99.90;;;;;;5000699;28;20037;-89
2023/08/23 10:43:10;;;;;;;7.75;6.88;;;26.70;99.90;;;;;;5029469;28;20144;-87
2023/08/23 10:45:49;;;;;;;8.80;6.10;;;26.60;99.90;;;;;;5027991;28;20084;-88
2023/08/23 10:48:18;;;;;;;6.95;6.07;;;27.20;99.90;;;;;;5022689;28;20040;-88
2023/08/23 10:50:44;;;;;;;7.82;6.38;;;26.80;99.90;;;;;;5045982;28;20063;-90
2023/08/23 10:53:10;;;;;;;8.48;6.53;;;27.00;99.90;;;;;;5004678;28;20102;-88
2023/08/23 10:55:37;;;;;;;6.13;5.35;;;27.50;99.90;;;;;;5037237;28;20479;-88
2023/08/23 10:58:03;;;;;;;8.30;4.95;;;27.60;99.90;;;;;;5020772;28;20098;-86
2023/08/23 11:00:29;;;;;;;7.97;5.22;;;27.90;99.90;;;;;;5001326;28;20045;-88
2023/08/23 11:02:58;;;;;;;5.68;4.68;;;27.90;99.90;;;;;;5006444;28;20107;-88
2023/08/23 11:05:24;;;;;;;6.22;5.45;;;28.00;99.90;;;;;;5026651;28;20037;-87
2023/08/23 11:07:51;;;;;;;5.60;4.97;;;27.80;99.90;;;;;;5050685;28;20040;-87
2023/08/23 11:10:18;;;;;;;7.32;5.32;;;28.00;99.90;;;;;;5029350;28;20068;-87
2023/08/23 11:12:44;;;;;;;6.97;5.00;;;28.10;99.90;;;;;;5023840;28;20052;-88
2023/08/23 11:15:10;;;;;;;8.27;5.20;;;28.30;99.90;;;;;;5007151;28;20040;-87
2023/08/23 11:17:37;;;;;;;8.38;4.78;;;28.00;99.90;;;;;;5045687;28;20040;-88
2023/08/23 11:20:06;;;;;;;5.18;3.67;;;28.30;99.90;;;;;;5028077;28;20040;-87
2023/08/23 11:22:38;;;;;;;7.55;4.53;;;28.50;99.90;;;;;;5013778;28;20067;-87
2023/08/23 11:25:04;;;;;;;6.82;4.10;;;27.70;99.90;;;;;;5004997;28;20048;-87
2023/08/23 11:27:30;;;;;;;4.93;4.15;;;28.60;99.90;;;;;;5052817;28;20044;-87
2023/08/23 11:29:59;;;;;;;7.35;4.35;;;28.70;99.90;;;;;;5015634;28;20041;-87
2023/08/23 11:32:25;;;;;;;5.03;3.75;;;28.70;99.90;;;;;;5052451;28;20071;-89
2023/08/23 11:34:52;;;;;;;4.38;3.13;;;28.50;99.90;;;;;;5026565;28;20123;-88
2023/08/23 11:37:17;;;;;;;10.07;3.67;;;28.30;99.90;;;;;;5014562;28;20105;-88
2023/08/23 11:39:53;;;;;;;5.82;3.97;;;28.20;99.90;;;;;;5011541;28;20033;-89
2023/08/23 11:42:21;;;;;;;5.68;3.08;;;28.10;99.90;;;;;;5044888;28;20044;-87
2023/08/23 11:44:46;;;;;;;5.22;3.00;;;28.60;99.90;;;;;;5022278;28;20178;-87
2023/08/23 11:47:12;;;;;;;6.30;3.30;;;28.70;99.90;;;;;;5028761;28;20162;-88
2023/08/23 11:49:38;;;;;;;3.95;3.50;;;28.80;99.90;;;;;;5047426;28;20044;-87
2023/08/23 11:52:03;;;;;;;4.55;3.70;;;29.10;99.90;;;;;;5026758;28;20036;-87
2023/08/23 11:54:29;;;;;;;4.25;3.45;;;29.20;99.90;;;;;;5006507;28;20417;-88
2023/08/23 11:56:59;;;;;;;4.97;4.47;;;29.40;99.90;;;;;;5022791;28;20036;-87
2023/08/23 11:59:25;;;;;;;4.95;3.38;;;28.90;99.90;;;;;;5039517;28;20040;-87
2023/08/23 12:01:51;;;;;;;4.70;2.97;;;28.90;99.90;;;;;;5022867;28;20036;-87
2023/08/23 12:04:17;;;;;;;3.40;2.90;;;28.80;99.90;;;;;;5023446;28;20032;-88
2023/08/23 12:06:42;;;;;;;4.07;3.22;;;28.40;99.90;;;;;;5010481;28;20488;-87
2023/08/23 12:09:09;;;;;;;4.63;3.10;;;28.30;99.90;;;;;;5043706;28;20068;-87
2023/08/23 12:11:35;;;;;;;5.63;3.22;;;28.00;99.90;;;;;;5038911;28;20038;-87
2023/08/23 12:14:03;;;;;;;4.60;2.72;;;27.80;99.90;;;;;;5006444;28;20380;-87
2023/08/23 12:16:30;;;;;;;3.25;2.20;;;27.80;99.90;;;;;;5022845;28;20037;-88
2023/08/23 12:18:58;;;;;;;4.32;2.53;;;27.60;99.90;;;;;;5034145;28;20425;-87
2023/08/23 12:21:24;;;;;;;4.07;2.40;;;27.60;99.90;;;;;;5036276;28;20089;-87
2023/08/23 12:23:49;;;;;;;5.13;2.05;;;27.50;99.90;;;;;;5016072;28;20052;-89
2023/08/23 12:26:20;;;;;;;3.17;2.15;;;27.40;99.90;;;;;;5016160;28;20124;-87
2023/08/23 12:28:46;;;;;;;3.28;1.80;;;27.30;99.90;;;;;;5029610;28;20104;-86
2023/08/23 12:31:15;;;;;;;3.97;2.10;;;27.30;99.90;;;;;;5014234;28;20037;-87
2023/08/23 12:33:42;;;;;;;3.38;2.05;;;27.30;99.90;;;;;;4990235;28;20206;-87
2023/08/23 12:36:08;;;;;;;4.05;2.15;;;27.70;99.90;;;;;;5009083;28;20473;-88
2023/08/23 12:38:34;;;;;;;6.75;2.63;;;27.80;99.90;;;;;;5007290;28;20113;-87